Time;durP1;ratioP1;P1;durP2;ratioP2;P2;SDS_P1;SDS_P2;PMS_P1;PMS_P2;Temp;Humidity;BMP_temperature;BMP_pressure;BME280_temperature;BME280_humidity;BME280_pressure;Samples;Min_cycle;Max_cycle;Signal;HPM_P1;HPM_P2
2022/05/29 00:01:53;;;;;;;3.30;0.95;;;16.80;92.70;;;;;;5098894;28;20369;-68
2022/05/29 00:04:20;;;;;;;3.60;0.98;;;16.80;92.70;;;;;;5100905;28;20031;-70
2022/05/29 00:06:49;;;;;;;6.43;1.70;;;16.80;92.70;;;;;;5103815;28;20045;-69
2022/05/29 00:09:25;;;;;;;3.00;1.13;;;16.80;92.80;;;;;;5104093;28;20016;-70
2022/05/29 00:11:52;;;;;;;8.13;1.15;;;16.70;92.70;;;;;;5107358;28;20047;-69
2022/05/29 00:14:18;;;;;;;3.88;1.25;;;16.70;92.70;;;;;;5098405;28;20011;-68
2022/05/29 00:16:44;;;;;;;5.72;0.98;;;16.70;92.70;;;;;;5096340;28;20071;-67
2022/05/29 00:19:11;;;;;;;5.68;1.10;;;16.80;92.70;;;;;;5102723;28;20020;-70
2022/05/29 00:21:38;;;;;;;4.97;1.30;;;16.70;92.70;;;;;;5104225;28;20020;-66
2022/05/29 00:24:06;;;;;;;7.32;1.77;;;16.70;92.70;;;;;;5097937;28;20012;-68
2022/05/29 00:26:33;;;;;;;4.68;1.90;;;16.70;92.70;;;;;;5101513;28;20033;-67
2022/05/29 00:28:59;;;;;;;7.65;2.55;;;16.70;92.70;;;;;;5104719;28;20056;-70
2022/05/29 00:31:26;;;;;;;6.38;3.08;;;16.70;92.70;;;;;;5104467;28;20141;-69
2022/05/29 00:33:52;;;;;;;12.95;5.10;;;16.70;92.70;;;;;;5102016;28;20035;-70
2022/05/29 00:36:19;;;;;;;9.10;4.05;;;16.70;92.60;;;;;;5100822;28;20062;-67
2022/05/29 00:38:48;;;;;;;8.00;4.50;;;16.70;92.70;;;;;;5100289;28;20063;-69
2022/05/29 00:41:19;;;;;;;6.53;4.10;;;16.70;92.70;;;;;;5103599;28;20340;-70
2022/05/29 00:44:26;;;;;;;8.25;3.55;;;16.70;93.00;;;;;;5101505;28;20979;-69
2022/05/29 00:46:58;;;;;;;7.50;3.65;;;16.70;92.70;;;;;;5101434;28;20098;-68
2022/05/29 00:49:33;;;;;;;8.68;4.78;;;16.70;92.80;;;;;;5102466;28;20550;-67
2022/05/29 00:52:12;;;;;;;11.25;3.83;;;16.70;92.80;;;;;;5103109;28;20027;-68
2022/05/29 00:54:55;;;;;;;15.13;4.13;;;16.70;92.80;;;;;;5100975;28;20056;-70
2022/05/29 00:57:28;;;;;;;5.72;3.10;;;16.70;92.90;;;;;;5101710;28;20036;-67
2022/05/29 00:59:59;;;;;;;5.95;2.90;;;16.70;92.90;;;;;;5097003;28;20640;-66
2022/05/29 01:02:26;;;;;;;7.25;2.20;;;16.70;92.90;;;;;;5094867;28;20023;-69
2022/05/29 01:04:52;;;;;;;3.85;2.47;;;16.70;92.90;;;;;;5102682;28;20051;-70
2022/05/29 01:07:21;;;;;;;2.13;1.60;;;16.70;92.90;;;;;;5106352;28;20067;-69
2022/05/29 01:09:50;;;;;;;4.88;1.90;;;16.70;92.90;;;;;;5103725;28;20375;-71
2022/05/29 01:12:31;;;;;;;10.57;2.28;;;16.60;92.90;;;;;;5105352;28;20011;-69
2022/05/29 01:15:25;;;;;;;5.45;1.52;;;16.60;92.90;;;;;;5100691;28;20042;-71
2022/05/29 01:17:54;;;;;;;4.82;1.83;;;16.60;92.90;;;;;;5102780;28;20375;-70
2022/05/29 01:20:49;;;;;;;3.58;1.33;;;16.60;92.90;;;;;;5092957;28;20881;-71
2022/05/29 01:23:37;;;;;;;5.43;1.98;;;16.60;92.90;;;;;;5102936;28;20023;-72
2022/05/29 01:26:28;;;;;;;7.05;1.67;;;16.60;93.00;;;;;;5101707;28;20467;-67
2022/05/29 01:28:59;;;;;;;3.55;1.52;;;16.60;92.90;;;;;;5099120;28;20031;-70
2022/05/29 01:31:56;;;;;;;3.10;1.45;;;16.60;92.90;;;;;;5103940;28;20023;-66
2022/05/29 01:34:36;;;;;;;5.30;1.52;;;16.60;92.90;;;;;;5095088;28;20030;-70
2022/05/29 01:37:37;;;;;;;3.40;2.75;;;16.60;92.90;;;;;;5099952;28;20517;-70
2022/05/29 01:40:04;;;;;;;6.32;1.30;;;16.70;92.90;;;;;;5092071;28;20469;-68
2022/05/29 01:43:02;;;;;;;3.63;1.23;;;16.60;92.80;;;;;;5106833;28;20027;-70
2022/05/29 01:45:53;;;;;;;3.47;1.10;;;16.60;92.90;;;;;;5102270;28;20054;-69
2022/05/29 01:48:29;;;;;;;4.50;2.00;;;16.60;92.90;;;;;;5098896;28;20566;-68
2022/05/29 01:51:00;;;;;;;5.80;1.25;;;16.60;92.90;;;;;;5102333;28;20023;-68
2022/05/29 01:53:42;;;;;;;7.13;1.48;;;16.60;92.90;;;;;;5100939;28;20473;-68
2022/05/29 01:56:22;;;;;;;6.18;1.30;;;16.60;92.90;;;;;;5096833;28;20665;-69
2022/05/29 01:58:57;;;;;;;6.75;1.40;;;16.60;92.90;;;;;;5100671;28;20023;-70
2022/05/29 02:01:34;;;;;;;10.50;1.48;;;16.60;93.00;;;;;;5100731;28;20095;-69
2022/05/29 02:04:08;;;;;;;4.20;1.90;;;16.60;93.00;;;;;;5103544;28;20016;-70
2022/05/29 02:09:41;;;;;;;6.03;2.40;;;16.60;93.00;;;;;;5108160;28;20026;-69
2022/05/29 02:12:14;;;;;;;5.95;1.30;;;16.60;93.00;;;;;;5106919;28;20463;-67
2022/05/29 02:14:45;;;;;;;5.50;1.88;;;16.60;93.10;;;;;;5101152;28;20035;-68
2022/05/29 02:17:23;;;;;;;7.78;1.52;;;16.60;93.10;;;;;;5103188;28;20059;-68
2022/05/29 02:19:56;;;;;;;10.60;2.53;;;16.60;93.20;;;;;;5104528;28;20007;-69
2022/05/29 02:22:28;;;;;;;6.50;2.05;;;16.60;93.20;;;;;;5104225;28;20031;-69
2022/05/29 02:25:09;;;;;;;7.05;1.33;;;16.60;93.20;;;;;;5107025;28;20019;-68
2022/05/29 02:28:03;;;;;;;9.40;2.28;;;16.60;93.30;;;;;;5104556;28;20030;-69
2022/05/29 02:31:03;;;;;;;6.55;1.70;;;16.60;93.40;;;;;;5101434;28;20387;-68
2022/05/29 02:33:48;;;;;;;6.10;1.98;;;16.60;93.50;;;;;;5105065;28;20024;-68
2022/05/29 02:36:59;;;;;;;12.48;3.28;;;16.60;93.60;;;;;;5103020;28;20035;-70
2022/05/29 02:39:50;;;;;;;5.70;2.38;;;16.60;93.70;;;;;;5080847;28;20039;-69
2022/05/29 02:42:44;;;;;;;10.32;2.75;;;16.60;93.80;;;;;;5101907;28;20017;-69
2022/05/29 02:45:41;;;;;;;11.13;2.35;;;16.70;93.80;;;;;;5104654;28;20055;-70
2022/05/29 02:48:29;;;;;;;10.90;3.97;;;16.70;93.90;;;;;;5105998;28;20094;-69
2022/05/29 02:51:20;;;;;;;13.38;4.82;;;16.70;93.90;;;;;;5105367;28;20118;-68
2022/05/29 02:53:47;;;;;;;15.30;4.00;;;16.70;94.20;;;;;;5104712;28;20020;-68
2022/05/29 02:56:15;;;;;;;14.32;3.83;;;16.70;94.00;;;;;;5098651;28;20036;-66
2022/05/29 02:58:44;;;;;;;8.57;2.42;;;16.70;94.10;;;;;;5102061;28;20027;-69
2022/05/29 03:01:34;;;;;;;12.07;3.53;;;16.70;94.10;;;;;;5104074;28;20023;-68
2022/05/29 03:04:28;;;;;;;13.43;2.40;;;16.70;94.10;;;;;;5075491;28;20046;-69
2022/05/29 03:07:31;;;;;;;8.82;2.08;;;16.70;94.10;;;;;;5100897;28;20028;-66
2022/05/29 03:10:16;;;;;;;7.40;2.03;;;16.70;94.10;;;;;;5098255;28;20518;-68
2022/05/29 03:12:52;;;;;;;10.27;2.53;;;16.60;94.10;;;;;;5101421;28;20382;-68
2022/05/29 03:15:38;;;;;;;11.27;2.92;;;16.70;94.10;;;;;;5106460;28;20028;-68
2022/05/29 03:18:20;;;;;;;7.07;1.88;;;16.70;94.40;;;;;;5104527;28;20055;-70
2022/05/29 03:21:19;;;;;;;9.73;2.25;;;16.60;94.00;;;;;;5101890;28;20551;-67
2022/05/29 03:23:59;;;;;;;11.85;3.08;;;16.70;94.10;;;;;;5080036;28;20491;-67
2022/05/29 03:26:25;;;;;;;10.07;2.65;;;16.70;94.10;;;;;;5085085;28;20027;-69
2022/05/29 03:29:21;;;;;;;9.93;2.53;;;16.70;94.10;;;;;;5106610;28;20016;-69
2022/05/29 03:31:49;;;;;;;12.32;4.07;;;16.70;94.10;;;;;;5103924;28;20100;-69
2022/05/29 03:34:16;;;;;;;9.95;2.60;;;16.70;94.10;;;;;;5102719;28;20384;-67
2022/05/29 03:36:51;;;;;;;9.93;2.83;;;16.70;94.20;;;;;;5103402;28;20039;-68
2022/05/29 03:39:18;;;;;;;11.70;3.22;;;16.70;94.20;;;;;;5087766;28;20512;-69
2022/05/29 03:41:48;;;;;;;12.27;2.40;;;16.70;94.20;;;;;;5105087;28;20016;-67
2022/05/29 03:44:17;;;;;;;11.20;3.03;;;16.70;94.20;;;;;;5103203;28;20040;-68
2022/05/29 03:46:44;;;;;;;10.77;3.50;;;16.70;94.20;;;;;;5100686;28;20503;-68
2022/05/29 03:49:13;;;;;;;12.05;3.60;;;16.70;94.30;;;;;;5099927;28;20115;-69
2022/05/29 03:51:40;;;;;;;5.55;2.03;;;16.70;94.30;;;;;;5093060;28;20095;-67
2022/05/29 03:54:07;;;;;;;12.77;2.67;;;16.70;94.30;;;;;;5106793;28;20048;-68
2022/05/29 03:56:34;;;;;;;11.90;2.58;;;16.70;94.20;;;;;;5103842;28;20035;-69
2022/05/29 03:59:00;;;;;;;10.43;1.95;;;16.70;94.30;;;;;;5102702;28;20026;-68
2022/05/29 04:01:28;;;;;;;8.15;2.53;;;16.70;94.30;;;;;;5105189;28;20042;-69
2022/05/29 04:03:54;;;;;;;10.10;1.77;;;16.70;94.30;;;;;;5100379;28;20027;-67
2022/05/29 04:06:26;;;;;;;16.77;3.05;;;16.60;94.20;;;;;;5105453;28;20023;-67
2022/05/29 04:12:56;;;;;;;9.00;2.83;;;16.60;94.30;;;;;;5104448;28;20035;-69
2022/05/29 04:16:03;;;;;;;10.13;2.40;;;16.60;94.30;;;;;;5104041;28;20043;-68
2022/05/29 04:18:29;;;;;;;8.95;2.22;;;16.60;94.30;;;;;;5105251;28;20028;-70
2022/05/29 04:20:55;;;;;;;11.55;2.65;;;16.70;94.40;;;;;;5101136;28;20064;-67
2022/05/29 04:24:02;;;;;;;6.65;2.83;;;16.60;94.30;;;;;;5103833;28;20526;-67
2022/05/29 04:27:08;;;;;;;11.07;3.22;;;16.70;94.40;;;;;;5078523;28;20027;-71
2022/05/29 04:30:14;;;;;;;16.52;4.35;;;16.60;94.40;;;;;;5096721;28;20034;-70
2022/05/29 04:33:22;;;;;;;10.00;3.35;;;16.60;94.30;;;;;;5099418;28;20024;-68
2022/05/29 04:35:53;;;;;;;20.42;3.63;;;16.60;94.30;;;;;;5101724;28;20038;-66
2022/05/29 04:38:23;;;;;;;15.30;3.83;;;16.60;94.20;;;;;;5095192;28;20038;-69
2022/05/29 04:40:50;;;;;;;12.35;3.28;;;16.60;94.20;;;;;;5102660;28;20023;-69
2022/05/29 04:43:17;;;;;;;15.75;6.38;;;16.60;94.10;;;;;;5097929;28;20031;-68
2022/05/29 04:45:45;;;;;;;34.33;18.35;;;16.60;93.90;;;;;;5100513;28;20096;-68
2022/05/29 04:48:13;;;;;;;27.75;13.82;;;16.60;93.80;;;;;;5102421;28;20019;-67
2022/05/29 04:50:40;;;;;;;24.13;7.95;;;16.50;93.70;;;;;;5101118;28;20119;-66
2022/05/29 04:53:07;;;;;;;19.67;4.85;;;16.60;93.50;;;;;;5103690;28;20069;-69
2022/05/29 04:55:33;;;;;;;14.55;3.58;;;16.60;93.40;;;;;;5103220;28;20079;-68
2022/05/29 04:58:00;;;;;;;10.98;2.67;;;16.60;93.30;;;;;;5105839;28;20479;-69
2022/05/29 05:00:26;;;;;;;14.70;3.80;;;16.50;93.20;;;;;;5101064;28;20051;-69
2022/05/29 05:02:53;;;;;;;11.02;3.00;;;16.60;93.10;;;;;;5100176;28;20024;-69
2022/05/29 05:05:20;;;;;;;9.35;2.85;;;16.60;93.00;;;;;;5103613;28;20026;-68
2022/05/29 05:07:47;;;;;;;10.23;2.28;;;16.60;93.00;;;;;;5096229;28;21461;-66
2022/05/29 05:10:18;;;;;;;10.63;2.40;;;16.60;93.00;;;;;;5098242;28;20024;-67
2022/05/29 05:12:45;;;;;;;7.63;2.08;;;16.60;92.90;;;;;;5094755;28;20011;-70
2022/05/29 05:15:15;;;;;;;8.60;1.80;;;16.60;92.80;;;;;;5096600;28;20012;-70
2022/05/29 05:17:42;;;;;;;11.05;2.40;;;16.50;92.80;;;;;;5095012;28;20438;-68
2022/05/29 05:20:10;;;;;;;13.07;2.80;;;16.60;92.70;;;;;;5098525;28;20024;-68
2022/05/29 05:22:39;;;;;;;12.13;3.35;;;16.50;92.60;;;;;;5075052;28;20476;-71
2022/05/29 05:25:06;;;;;;;13.13;2.55;;;16.50;92.60;;;;;;5095734;28;20027;-71
2022/05/29 05:27:38;;;;;;;9.18;2.58;;;16.60;92.70;;;;;;5095301;28;20591;-71
2022/05/29 05:30:06;;;;;;;11.57;2.65;;;16.50;92.60;;;;;;5094459;28;20027;-68
2022/05/29 05:32:33;;;;;;;14.65;3.38;;;16.60;92.70;;;;;;5093315;28;20023;-71
2022/05/29 05:35:07;;;;;;;17.92;6.35;;;16.50;92.80;;;;;;5094626;28;20019;-69
2022/05/29 05:37:38;;;;;;;17.10;4.80;;;16.60;92.90;;;;;;5083326;28;20035;-69
2022/05/29 05:40:09;;;;;;;15.65;3.80;;;16.60;92.90;;;;;;5101466;28;20577;-67
2022/05/29 05:42:36;;;;;;;6.70;2.40;;;16.60;93.00;;;;;;5101806;28;20030;-70
2022/05/29 05:45:05;;;;;;;9.45;2.58;;;16.50;93.10;;;;;;5097428;28;20078;-73
2022/05/29 05:47:32;;;;;;;7.95;2.42;;;16.50;93.20;;;;;;5096726;28;20028;-67
2022/05/29 05:49:58;;;;;;;26.17;14.77;;;16.50;93.10;;;;;;5095686;28;20020;-69
2022/05/29 05:52:25;;;;;;;27.95;15.00;;;16.50;93.10;;;;;;5094988;28;20072;-70
2022/05/29 05:54:51;;;;;;;19.83;10.10;;;16.50;93.10;;;;;;5096819;28;20028;-67
2022/05/29 05:57:19;;;;;;;14.25;6.40;;;16.50;93.10;;;;;;5092883;28;20032;-71
2022/05/29 05:59:46;;;;;;;16.10;6.30;;;16.50;93.10;;;;;;5098641;28;20035;-65
2022/05/29 06:02:52;;;;;;;13.02;4.38;;;16.50;93.20;;;;;;5094494;28;20028;-71
2022/05/29 06:05:58;;;;;;;13.10;3.55;;;16.50;93.20;;;;;;5099314;28;20057;-70
2022/05/29 06:09:04;;;;;;;12.25;3.00;;;16.50;93.20;;;;;;5097999;28;20020;-68
2022/05/29 06:12:10;;;;;;;12.60;4.18;;;16.50;93.10;;;;;;5097118;28;20089;-69
2022/05/29 06:15:16;;;;;;;10.40;2.78;;;16.50;93.00;;;;;;5099784;28;20050;-69
2022/05/29 06:18:22;;;;;;;10.68;2.78;;;16.50;93.00;;;;;;5095829;28;20024;-68
2022/05/29 06:21:28;;;;;;;11.77;2.45;;;16.40;92.80;;;;;;5096662;28;20031;-70
2022/05/29 06:24:34;;;;;;;18.83;4.28;;;16.40;92.70;;;;;;5095700;28;20042;-69
2022/05/29 06:27:40;;;;;;;24.23;4.15;;;16.40;92.60;;;;;;5095361;28;20056;-66
2022/05/29 06:30:47;;;;;;;12.73;3.15;;;16.40;92.60;;;;;;5092982;28;20024;-65
2022/05/29 06:33:53;;;;;;;22.73;5.35;;;16.40;92.50;;;;;;5097859;28;20032;-73
2022/05/29 06:36:23;;;;;;;11.77;3.67;;;16.40;92.50;;;;;;5096252;28;20111;-69
2022/05/29 06:39:29;;;;;;;19.00;4.13;;;16.40;92.50;;;;;;5095575;28;20023;-68
2022/05/29 06:42:35;;;;;;;13.63;4.53;;;16.40;92.60;;;;;;5094883;28;20509;-71
2022/05/29 06:45:41;;;;;;;12.35;3.10;;;16.40;92.60;;;;;;5093178;28;20040;-66
2022/05/29 06:48:47;;;;;;;16.55;6.95;;;16.40;92.60;;;;;;5094037;28;20098;-66
2022/05/29 06:51:54;;;;;;;22.00;12.57;;;16.40;92.70;;;;;;5096082;28;20368;-66
2022/05/29 06:55:00;;;;;;;16.90;8.63;;;16.50;92.90;;;;;;5096272;28;20558;-65
2022/05/29 06:58:06;;;;;;;18.38;6.68;;;16.50;92.90;;;;;;5097508;28;20127;-66
2022/05/29 07:07:21;;;;;;;9.63;2.90;;;16.60;93.10;;;;;;5091826;28;20120;-66
2022/05/29 07:09:48;;;;;;;9.75;2.80;;;16.50;93.20;;;;;;5095546;28;20794;-67
2022/05/29 07:12:31;;;;;;;10.57;2.88;;;16.60;93.30;;;;;;5091375;28;20077;-64
2022/05/29 07:15:09;;;;;;;6.10;2.03;;;16.60;93.30;;;;;;5094964;28;20028;-66
2022/05/29 07:17:36;;;;;;;12.02;2.67;;;16.60;93.40;;;;;;5095643;28;20498;-67
2022/05/29 07:20:04;;;;;;;13.82;2.45;;;16.60;93.50;;;;;;5094277;28;20028;-68
2022/05/29 07:22:32;;;;;;;11.32;2.38;;;16.60;93.50;;;;;;5094548;28;20023;-67
2022/05/29 07:24:59;;;;;;;7.72;2.40;;;16.70;93.60;;;;;;5092846;28;20077;-67
2022/05/29 07:27:25;;;;;;;9.52;3.15;;;16.70;93.60;;;;;;5094707;28;20016;-65
2022/05/29 07:29:53;;;;;;;10.35;2.45;;;16.70;93.60;;;;;;5094489;28;20027;-66
2022/05/29 07:32:21;;;;;;;8.32;2.83;;;16.70;93.40;;;;;;5096915;28;20028;-65
2022/05/29 07:34:47;;;;;;;10.02;2.53;;;16.70;93.30;;;;;;5098201;28;20023;-65
2022/05/29 07:37:16;;;;;;;14.70;2.80;;;16.80;93.30;;;;;;5095469;28;20804;-65
2022/05/29 07:39:46;;;;;;;14.00;3.33;;;16.70;93.10;;;;;;5094550;28;20524;-66
2022/05/29 07:45:37;;;;;;;10.02;2.92;;;16.70;92.90;;;;;;5096288;28;20050;-65
2022/05/29 07:48:43;;;;;;;9.70;2.78;;;16.70;92.70;;;;;;5096413;28;20032;-67
2022/05/29 07:51:49;;;;;;;13.00;3.15;;;16.70;92.60;;;;;;5077319;28;20039;-67
2022/05/29 07:54:55;;;;;;;10.45;3.03;;;16.80;92.50;;;;;;5097531;28;20024;-69
2022/05/29 07:58:02;;;;;;;14.10;2.90;;;16.80;92.40;;;;;;5096900;28;20046;-66
2022/05/29 08:01:08;;;;;;;8.73;2.58;;;16.80;92.30;;;;;;5095892;28;20027;-66
2022/05/29 08:04:14;;;;;;;11.02;2.20;;;16.80;92.10;;;;;;5094649;28;20020;-68
2022/05/29 08:07:21;;;;;;;12.07;2.78;;;16.80;92.00;;;;;;5096415;28;20092;-66
2022/05/29 08:10:08;;;;;;;;;;;16.80;91.80;;;;;;5100416;28;20024;-66
2022/05/29 08:13:14;;;;;;;9.10;2.63;;;16.80;91.70;;;;;;5095015;28;20453;-66
2022/05/29 08:16:00;;;;;;;;;;;16.80;91.50;;;;;;5091055;28;20084;-66
2022/05/29 08:19:07;;;;;;;5.30;2.30;;;16.70;91.30;;;;;;5076779;28;19918;-67
2022/05/29 08:21:53;;;;;;;;;;;16.70;91.10;;;;;;5091709;28;20670;-66
2022/05/29 08:31:48;;;;;;;12.80;2.85;;;16.70;90.50;;;;;;5095085;28;20082;-68
2022/05/29 08:34:54;;;;;;;12.73;5.35;;;16.70;90.30;;;;;;5100439;28;20069;-68
2022/05/29 08:38:00;;;;;;;12.68;4.55;;;16.80;90.20;;;;;;5097050;28;20059;-71
2022/05/29 08:41:09;;;;;;;16.50;3.78;;;16.70;90.10;;;;;;5101700;28;20020;-71
2022/05/29 08:43:39;;;;;;;8.05;3.58;;;16.80;90.00;;;;;;5097791;28;20613;-72
2022/05/29 08:46:16;;;;;;;9.82;4.07;;;16.80;89.80;;;;;;5100393;28;20038;-67
2022/05/29 08:48:43;;;;;;;11.45;4.32;;;16.90;89.50;;;;;;5102765;28;20024;-68
2022/05/29 08:51:37;;;;;;;8.55;2.92;;;16.90;87.90;;;;;;5101548;28;20368;-68
2022/05/29 08:55:11;;;;;;;6.43;3.28;;;16.90;87.30;;;;;;5098184;28;20027;-71
2022/05/29 08:58:15;;;;;;;12.15;4.47;;;17.00;86.70;;;;;;5104345;28;20716;-69
2022/05/29 09:01:04;;;;;;;10.73;3.20;;;17.00;86.00;;;;;;5097858;28;20066;-69
2022/05/29 09:04:06;;;;;;;13.10;2.90;;;17.00;85.20;;;;;;5083873;28;20066;-69
2022/05/29 09:07:17;;;;;;;9.93;2.70;;;17.10;84.70;;;;;;5094535;28;20160;-67
2022/05/29 09:10:24;;;;;;;14.20;3.00;;;17.10;84.10;;;;;;5102645;28;20028;-70
2022/05/29 09:13:33;;;;;;;13.40;2.97;;;17.20;83.70;;;;;;5080174;28;20024;-68
2022/05/29 09:16:39;;;;;;;9.18;2.25;;;17.30;83.40;;;;;;5104909;28;20044;-69
2022/05/29 09:19:25;;;;;;;8.85;2.47;;;17.30;83.20;;;;;;5102251;28;20413;-70
2022/05/29 09:22:10;;;;;;;13.75;4.75;;;17.40;83.00;;;;;;5099870;28;20298;-68
2022/05/29 09:25:25;;;;;;;11.30;2.72;;;17.40;82.60;;;;;;5083788;28;20076;-69
2022/05/29 09:28:34;;;;;;;9.85;1.95;;;17.40;82.10;;;;;;5100883;28;20505;-68
2022/05/29 09:31:47;;;;;;;8.52;2.13;;;17.50;81.60;;;;;;5096517;28;20501;-67
2022/05/29 09:34:53;;;;;;;6.20;1.50;;;17.60;81.10;;;;;;5098252;28;20031;-68
2022/05/29 09:37:41;;;;;;;8.55;1.55;;;17.60;79.90;;;;;;5097054;28;20088;-69
2022/05/29 09:40:54;;;;;;;4.47;2.00;;;17.60;78.80;;;;;;5105305;28;20032;-66
2022/05/29 09:44:00;;;;;;;6.82;1.58;;;17.70;78.40;;;;;;5099030;28;20048;-66
2022/05/29 09:50:42;;;;;;;5.35;1.25;;;17.70;77.30;;;;;;5102908;28;20532;-70
2022/05/29 09:53:18;;;;;;;4.80;1.50;;;17.60;77.20;;;;;;5097562;28;20046;-67
2022/05/29 09:56:04;;;;;;;2.47;0.98;;;17.60;77.40;;;;;;5091012;28;20063;-69
2022/05/29 09:58:48;;;;;;;30.35;18.83;;;17.60;77.70;;;;;;5099020;28;20020;-70
2022/05/29 10:01:36;;;;;;;29.48;17.20;;;17.50;78.00;;;;;;5097689;28;20020;-70
2022/05/29 10:04:12;;;;;;;12.88;9.40;;;17.50;78.80;;;;;;5096050;28;20030;-67
2022/05/29 10:06:44;;;;;;;11.90;6.85;;;17.50;79.40;;;;;;5094236;28;20422;-68
2022/05/29 10:09:20;;;;;;;7.95;4.43;;;17.40;80.00;;;;;;5092631;28;20069;-68
2022/05/29 10:11:50;;;;;;;10.90;2.67;;;17.40;80.60;;;;;;5097617;28;20077;-70
2022/05/29 10:14:51;;;;;;;5.40;2.08;;;17.40;81.00;;;;;;5093236;28;20030;-67
2022/05/29 10:17:39;;;;;;;6.05;1.98;;;17.40;81.30;;;;;;5021125;28;20094;-66
2022/05/29 10:20:31;;;;;;;4.50;1.65;;;17.40;81.40;;;;;;5092494;28;20040;-68
2022/05/29 10:23:09;;;;;;;5.70;1.70;;;17.40;81.50;;;;;;5082497;28;20043;-68
2022/05/29 10:25:41;;;;;;;6.65;1.92;;;17.40;81.50;;;;;;5098441;28;20485;-67
2022/05/29 10:28:15;;;;;;;3.88;1.30;;;17.40;81.60;;;;;;5097550;28;20027;-67
2022/05/29 10:30:44;;;;;;;6.15;2.47;;;17.40;81.60;;;;;;5097521;28;20028;-67
2022/05/29 10:33:23;;;;;;;6.03;1.45;;;17.30;81.40;;;;;;5102122;28;20561;-68
2022/05/29 10:35:52;;;;;;;3.72;1.80;;;17.30;81.30;;;;;;5095219;28;20406;-66
2022/05/29 10:38:26;;;;;;;4.75;1.52;;;17.30;81.20;;;;;;5094885;28;20111;-67
2022/05/29 10:40:56;;;;;;;5.45;1.58;;;17.30;81.00;;;;;;5093808;28;20027;-70
2022/05/29 10:43:45;;;;;;;9.85;2.17;;;17.30;80.80;;;;;;5097771;28;20028;-68
2022/05/29 10:46:20;;;;;;;8.68;2.35;;;17.30;80.90;;;;;;5095473;28;20036;-67
2022/05/29 10:49:28;;;;;;;8.60;2.35;;;17.30;81.00;;;;;;5094874;28;20019;-69
2022/05/29 10:51:55;;;;;;;6.45;1.60;;;17.40;81.20;;;;;;5091142;28;20028;-69
2022/05/29 10:55:09;;;;;;;6.25;1.67;;;17.50;81.40;;;;;;5099792;28;20024;-68
2022/05/29 10:58:09;;;;;;;8.30;1.83;;;17.60;81.60;;;;;;5055142;28;20471;-67
2022/05/29 11:01:04;;;;;;;5.28;1.63;;;17.60;81.50;;;;;;5098407;28;20132;-68
2022/05/29 11:03:34;;;;;;;2.42;1.15;;;17.80;81.20;;;;;;5102878;28;20027;-68
2022/05/29 11:06:12;;;;;;;4.40;1.60;;;17.80;80.60;;;;;;5098236;28;20028;-68
2022/05/29 11:09:03;;;;;;;2.88;1.15;;;17.90;80.20;;;;;;5094638;28;20027;-70
2022/05/29 11:11:55;;;;;;;5.05;1.77;;;18.00;79.20;;;;;;5101977;28;20016;-67
2022/05/29 11:14:27;;;;;;;7.53;1.23;;;18.10;78.00;;;;;;5098743;28;20390;-67
2022/05/29 11:17:18;;;;;;;2.17;1.35;;;18.10;77.30;;;;;;5100125;28;20122;-69
2022/05/29 11:20:27;;;;;;;5.50;2.05;;;18.20;76.80;;;;;;5097201;28;20055;-70
2022/05/29 11:23:09;;;;;;;7.25;2.65;;;18.30;76.20;;;;;;5096950;28;20368;-67
2022/05/29 11:25:44;;;;;;;4.32;1.60;;;18.40;75.60;;;;;;5096755;28;20031;-70
2022/05/29 11:28:39;;;;;;;5.60;2.55;;;18.40;75.20;;;;;;5100245;28;20016;-69
2022/05/29 11:31:06;;;;;;;9.30;1.83;;;18.50;74.60;;;;;;5097721;28;20111;-67
2022/05/29 11:33:57;;;;;;;8.27;2.33;;;18.50;74.00;;;;;;5105166;28;20019;-67
2022/05/29 11:36:42;;;;;;;7.53;2.20;;;18.60;73.70;;;;;;5103248;28;20031;-68
2022/05/29 11:39:32;;;;;;;8.95;3.15;;;18.60;72.50;;;;;;5103230;28;20483;-69
2022/05/29 11:42:13;;;;;;;7.53;1.90;;;18.70;72.30;;;;;;5096757;28;20137;-69
2022/05/29 11:45:01;;;;;;;6.85;3.10;;;18.70;71.70;;;;;;5097208;28;20042;-68
2022/05/29 11:53:27;;;;;;;6.32;1.75;;;18.90;71.00;;;;;;5100020;28;20105;-67
2022/05/29 11:55:56;;;;;;;5.45;1.95;;;18.90;71.30;;;;;;5096502;28;20118;-69
2022/05/29 11:58:38;;;;;;;7.03;1.85;;;18.90;71.10;;;;;;5096957;28;20078;-70
2022/05/29 12:01:37;;;;;;;14.05;2.90;;;18.80;71.00;;;;;;5095213;28;20027;-68
2022/05/29 12:04:40;;;;;;;9.88;2.70;;;18.70;70.90;;;;;;5092871;28;20044;-70
2022/05/29 12:07:41;;;;;;;9.45;2.50;;;18.70;71.00;;;;;;5090177;28;20027;-67
2022/05/29 12:10:26;;;;;;;9.65;3.22;;;18.70;70.90;;;;;;5082904;28;20114;-68
2022/05/29 12:13:20;;;;;;;6.57;2.30;;;18.70;70.60;;;;;;5098925;28;20038;-68
2022/05/29 12:15:53;;;;;;;8.73;2.55;;;18.70;70.40;;;;;;5095875;28;20460;-69
2022/05/29 12:18:21;;;;;;;14.07;2.38;;;18.70;70.00;;;;;;5098140;28;20030;-68
2022/05/29 12:20:55;;;;;;;9.90;2.65;;;18.80;69.80;;;;;;5078487;28;20022;-67
2022/05/29 12:23:27;;;;;;;4.97;2.97;;;18.80;69.40;;;;;;5100897;28;20034;-68
2022/05/29 12:26:35;;;;;;;6.15;2.72;;;18.80;69.00;;;;;;5102471;28;20035;-67
2022/05/29 12:29:04;;;;;;;12.40;2.88;;;18.90;68.30;;;;;;5095259;28;20062;-69
2022/05/29 12:31:41;;;;;;;11.25;2.60;;;19.00;67.90;;;;;;5098482;28;20501;-68
2022/05/29 12:34:16;;;;;;;9.70;2.88;;;19.00;67.70;;;;;;5100221;28;20023;-68
2022/05/29 12:36:49;;;;;;;7.75;3.05;;;19.10;67.40;;;;;;5094399;28;20039;-68
2022/05/29 12:39:47;;;;;;;7.55;2.35;;;19.10;67.00;;;;;;5094276;28;20096;-67
2022/05/29 12:42:22;;;;;;;7.07;1.52;;;19.20;66.60;;;;;;5092349;28;20149;-68
2022/05/29 12:45:07;;;;;;;6.15;1.60;;;19.20;64.60;;;;;;5094820;28;20111;-68
2022/05/29 12:47:58;;;;;;;3.87;1.40;;;19.30;64.30;;;;;;5094933;28;20052;-69
2022/05/29 12:50:36;;;;;;;6.97;1.88;;;19.30;63.40;;;;;;5093016;28;20268;-69
2022/05/29 12:53:05;;;;;;;6.78;1.73;;;19.40;62.60;;;;;;5092268;28;20029;-68
2022/05/29 12:56:05;;;;;;;4.75;1.70;;;19.40;62.50;;;;;;5092243;28;20026;-68
2022/05/29 12:58:55;;;;;;;5.88;1.73;;;19.40;62.60;;;;;;5093969;28;20472;-67
2022/05/29 13:01:52;;;;;;;5.03;1.92;;;19.50;62.00;;;;;;5093030;28;20040;-68
2022/05/29 13:05:01;;;;;;;9.15;1.98;;;19.50;61.70;;;;;;5094916;28;20055;-68
2022/05/29 13:07:47;;;;;;;4.43;1.42;;;19.40;60.80;;;;;;5090642;28;20084;-68
2022/05/29 13:10:27;;;;;;;6.53;2.08;;;19.50;60.50;;;;;;5091511;28;20016;-70
2022/05/29 13:13:20;;;;;;;4.22;1.50;;;19.50;60.50;;;;;;5094752;28;20592;-69
2022/05/29 13:15:47;;;;;;;6.47;1.70;;;19.40;60.50;;;;;;5093852;28;20055;-71
2022/05/29 13:18:40;;;;;;;6.75;1.98;;;19.40;60.60;;;;;;5093179;28;20011;-69
2022/05/29 13:21:10;;;;;;;6.00;1.77;;;19.30;60.70;;;;;;5087241;28;20050;-67
2022/05/29 13:23:55;;;;;;;7.90;2.05;;;19.30;60.70;;;;;;5091435;28;20038;-71
2022/05/29 13:26:31;;;;;;;6.45;1.67;;;19.20;60.80;;;;;;5095755;28;20023;-69
2022/05/29 13:28:59;;;;;;;7.93;1.85;;;19.20;60.90;;;;;;5090724;28;20020;-68
2022/05/29 13:31:31;;;;;;;6.43;2.38;;;19.20;61.20;;;;;;5095629;28;20027;-70
2022/05/29 13:34:36;;;;;;;9.73;2.28;;;19.10;61.30;;;;;;5077116;28;20104;-71
2022/05/29 13:37:06;;;;;;;7.32;2.67;;;19.20;61.10;;;;;;5018198;28;20128;-68
2022/05/29 13:39:51;;;;;;;8.70;2.67;;;19.10;61.00;;;;;;5019472;28;20034;-69
2022/05/29 13:42:40;;;;;;;14.18;4.18;;;19.20;61.30;;;;;;5067429;28;20035;-71
2022/05/29 13:45:25;;;;;;;9.50;3.67;;;19.20;61.50;;;;;;5098178;28;20048;-70
2022/05/29 13:48:12;;;;;;;7.47;2.63;;;19.20;60.60;;;;;;5102962;28;20039;-69
2022/05/29 13:50:51;;;;;;;10.43;3.00;;;19.20;60.40;;;;;;5102320;28;20031;-71
2022/05/29 13:53:26;;;;;;;14.43;3.28;;;19.20;60.50;;;;;;5096512;28;20024;-69
2022/05/29 13:56:04;;;;;;;12.55;2.35;;;19.20;60.60;;;;;;5094667;28;20042;-71
2022/05/29 14:04:22;;;;;;;7.55;2.40;;;19.20;60.60;;;;;;5100267;28;20126;-70
2022/05/29 14:07:29;;;;;;;10.82;2.35;;;19.20;60.70;;;;;;5096193;28;20037;-70
2022/05/29 14:10:26;;;;;;;8.30;2.75;;;19.10;60.00;;;;;;5035970;28;20465;-71
2022/05/29 14:13:05;;;;;;;7.13;2.38;;;19.10;59.80;;;;;;5101194;28;20022;-71
2022/05/29 14:15:37;;;;;;;7.55;2.58;;;19.00;60.00;;;;;;5100612;28;20100;-71
2022/05/29 14:18:26;;;;;;;9.60;3.15;;;19.00;60.00;;;;;;5098333;28;20027;-71
2022/05/29 14:20:55;;;;;;;9.10;2.75;;;18.90;61.00;;;;;;5095995;28;20047;-72
2022/05/29 14:23:37;;;;;;;13.57;3.17;;;18.90;61.50;;;;;;5102685;28;20050;-71
2022/05/29 14:26:48;;;;;;;18.65;2.67;;;18.90;61.40;;;;;;5102039;28;20363;-71
2022/05/29 14:29:49;;;;;;;18.58;2.75;;;18.90;60.80;;;;;;5097706;28;20016;-72
2022/05/29 14:33:01;;;;;;;9.68;2.75;;;18.80;59.70;;;;;;5059463;28;20028;-70
2022/05/29 14:35:46;;;;;;;14.45;3.80;;;18.80;59.70;;;;;;5100075;28;20020;-74
2022/05/29 14:38:39;;;;;;;10.43;2.97;;;18.70;59.10;;;;;;5101200;28;20129;-74
2022/05/29 14:41:26;;;;;;;9.45;2.58;;;18.70;59.60;;;;;;5098719;28;20039;-73
2022/05/29 14:43:53;;;;;;;6.03;2.80;;;18.70;59.80;;;;;;5097750;28;20467;-72